sensor_id;sensor_type;location;lat;lon;timestamp;P1;durP1;ratioP1;P2;durP2;ratioP2
65581;SDS011;52231;40.090;18.348;2023-01-01T00:02:23;196.57;;;84.55;;
65581;SDS011;52231;40.090;18.348;2023-01-01T00:04:51;184.88;;;79.03;;
65581;SDS011;52231;40.090;18.348;2023-01-01T00:07:23;190.45;;;79.65;;
65581;SDS011;52231;40.090;18.348;2023-01-01T00:10:16;179.40;;;72.05;;
65581;SDS011;52231;40.090;18.348;2023-01-01T00:13:15;164.85;;;65.50;;
65581;SDS011;52231;40.090;18.348;2023-01-01T00:19:25;112.30;;;46.05;;
65581;SDS011;52231;40.090;18.348;2023-01-01T00:22:12;100.75;;;42.28;;
65581;SDS011;52231;40.090;18.348;2023-01-01T00:28:32;94.75;;;36.35;;
65581;SDS011;52231;40.090;18.348;2023-01-01T00:35:35;78.25;;;31.10;;
65581;SDS011;52231;40.090;18.348;2023-01-01T00:38:04;67.97;;;29.40;;
65581;SDS011;52231;40.090;18.348;2023-01-01T00:40:37;61.00;;;28.30;;
65581;SDS011;52231;40.090;18.348;2023-01-01T00:43:09;72.60;;;29.10;;
65581;SDS011;52231;40.090;18.348;2023-01-01T00:45:41;88.63;;;33.60;;
65581;SDS011;52231;40.090;18.348;2023-01-01T00:48:15;76.35;;;31.88;;
65581;SDS011;52231;40.090;18.348;2023-01-01T00:53:22;74.05;;;29.98;;
65581;SDS011;52231;40.090;18.348;2023-01-01T00:55:55;66.82;;;27.02;;
65581;SDS011;52231;40.090;18.348;2023-01-01T00:58:56;70.40;;;27.25;;
65581;SDS011;52231;40.090;18.348;2023-01-01T01:06:07;66.93;;;27.73;;
65581;SDS011;52231;40.090;18.348;2023-01-01T01:08:46;72.30;;;27.42;;
65581;SDS011;52231;40.090;18.348;2023-01-01T01:25:40;67.25;;;28.00;;
65581;SDS011;52231;40.090;18.348;2023-01-01T01:28:25;56.53;;;29.35;;
65581;SDS011;52231;40.090;18.348;2023-01-01T01:31:17;60.38;;;28.52;;
65581;SDS011;52231;40.090;18.348;2023-01-01T01:34:09;62.75;;;29.67;;
65581;SDS011;52231;40.090;18.348;2023-01-01T01:36:41;76.40;;;31.95;;
65581;SDS011;52231;40.090;18.348;2023-01-01T01:39:14;79.63;;;31.58;;
65581;SDS011;52231;40.090;18.348;2023-01-01T01:41:44;74.72;;;29.75;;
65581;SDS011;52231;40.090;18.348;2023-01-01T01:47:56;65.15;;;27.52;;
65581;SDS011;52231;40.090;18.348;2023-01-01T01:51:04;73.88;;;29.98;;
65581;SDS011;52231;40.090;18.348;2023-01-01T01:53:34;66.72;;;29.23;;
65581;SDS011;52231;40.090;18.348;2023-01-01T01:56:20;65.55;;;27.83;;
65581;SDS011;52231;40.090;18.348;2023-01-01T01:59:00;62.65;;;27.60;;
65581;SDS011;52231;40.090;18.348;2023-01-01T02:01:29;60.03;;;27.73;;
65581;SDS011;52231;40.090;18.348;2023-01-01T02:03:59;60.25;;;26.50;;
65581;SDS011;52231;40.090;18.348;2023-01-01T02:07:14;59.13;;;25.95;;
65581;SDS011;52231;40.090;18.348;2023-01-01T02:10:01;57.05;;;27.00;;
65581;SDS011;52231;40.090;18.348;2023-01-01T02:12:30;61.30;;;26.83;;
65581;SDS011;52231;40.090;18.348;2023-01-01T02:15:02;60.38;;;27.92;;
65581;SDS011;52231;40.090;18.348;2023-01-01T02:17:34;64.38;;;28.17;;
65581;SDS011;52231;40.090;18.348;2023-01-01T02:29:35;69.32;;;29.63;;
65581;SDS011;52231;40.090;18.348;2023-01-01T02:37:13;78.47;;;34.45;;
65581;SDS011;52231;40.090;18.348;2023-01-01T02:39:47;82.60;;;37.47;;
65581;SDS011;52231;40.090;18.348;2023-01-01T02:42:30;72.38;;;35.60;;
65581;SDS011;52231;40.090;18.348;2023-01-01T02:45:02;85.82;;;37.08;;
65581;SDS011;52231;40.090;18.348;2023-01-01T02:47:35;82.45;;;38.55;;
65581;SDS011;52231;40.090;18.348;2023-01-01T02:50:26;87.78;;;39.92;;
65581;SDS011;52231;40.090;18.348;2023-01-01T03:02:37;89.85;;;38.92;;
65581;SDS011;52231;40.090;18.348;2023-01-01T03:15:23;87.30;;;38.67;;
65581;SDS011;52231;40.090;18.348;2023-01-01T03:20:49;102.43;;;39.22;;
65581;SDS011;52231;40.090;18.348;2023-01-01T03:23:26;89.35;;;38.63;;
65581;SDS011;52231;40.090;18.348;2023-01-01T03:26:04;97.22;;;39.05;;
65581;SDS011;52231;40.090;18.348;2023-01-01T03:29:03;99.25;;;39.17;;
65581;SDS011;52231;40.090;18.348;2023-01-01T03:31:48;95.15;;;38.55;;
65581;SDS011;52231;40.090;18.348;2023-01-01T03:34:25;87.18;;;34.97;;
65581;SDS011;52231;40.090;18.348;2023-01-01T03:37:05;83.32;;;35.42;;
65581;SDS011;52231;40.090;18.348;2023-01-01T03:39:39;87.35;;;34.90;;
65581;SDS011;52231;40.090;18.348;2023-01-01T03:42:21;85.25;;;32.63;;
65581;SDS011;52231;40.090;18.348;2023-01-01T03:45:23;83.40;;;33.47;;
65581;SDS011;52231;40.090;18.348;2023-01-01T03:47:59;86.18;;;33.35;;
65581;SDS011;52231;40.090;18.348;2023-01-01T03:53:42;80.28;;;31.83;;
65581;SDS011;52231;40.090;18.348;2023-01-01T03:59:17;75.95;;;29.15;;
65581;SDS011;52231;40.090;18.348;2023-01-01T04:02:01;75.75;;;30.08;;
65581;SDS011;52231;40.090;18.348;2023-01-01T04:04:33;62.53;;;28.42;;
65581;SDS011;52231;40.090;18.348;2023-01-01T04:07:05;62.05;;;26.33;;
65581;SDS011;52231;40.090;18.348;2023-01-01T04:09:40;63.45;;;26.13;;
65581;SDS011;52231;40.090;18.348;2023-01-01T04:12:14;65.45;;;28.80;;
65581;SDS011;52231;40.090;18.348;2023-01-01T04:14:49;63.45;;;26.77;;
65581;SDS011;52231;40.090;18.348;2023-01-01T04:17:20;64.95;;;27.05;;
65581;SDS011;52231;40.090;18.348;2023-01-01T04:19:48;58.30;;;25.90;;
65581;SDS011;52231;40.090;18.348;2023-01-01T04:22:21;58.30;;;24.33;;
65581;SDS011;52231;40.090;18.348;2023-01-01T04:24:59;64.25;;;26.60;;
65581;SDS011;52231;40.090;18.348;2023-01-01T04:27:30;60.95;;;27.05;;
65581;SDS011;52231;40.090;18.348;2023-01-01T04:30:26;63.67;;;26.63;;
65581;SDS011;52231;40.090;18.348;2023-01-01T04:32:58;65.15;;;25.20;;
65581;SDS011;52231;40.090;18.348;2023-01-01T04:37:55;60.33;;;24.17;;
65581;SDS011;52231;40.090;18.348;2023-01-01T04:40:23;59.60;;;22.92;;
65581;SDS011;52231;40.090;18.348;2023-01-01T04:42:52;56.50;;;23.13;;
65581;SDS011;52231;40.090;18.348;2023-01-01T04:45:21;59.40;;;24.50;;
65581;SDS011;52231;40.090;18.348;2023-01-01T04:47:49;65.25;;;25.35;;
65581;SDS011;52231;40.090;18.348;2023-01-01T04:50:20;63.88;;;25.40;;
65581;SDS011;52231;40.090;18.348;2023-01-01T04:52:48;64.07;;;24.83;;
65581;SDS011;52231;40.090;18.348;2023-01-01T04:55:25;60.60;;;24.02;;
65581;SDS011;52231;40.090;18.348;2023-01-01T04:57:54;57.15;;;24.88;;
65581;SDS011;52231;40.090;18.348;2023-01-01T05:00:35;55.65;;;24.02;;
65581;SDS011;52231;40.090;18.348;2023-01-01T05:03:03;58.80;;;24.10;;
65581;SDS011;52231;40.090;18.348;2023-01-01T05:05:35;59.65;;;24.20;;
65581;SDS011;52231;40.090;18.348;2023-01-01T05:08:17;58.60;;;24.08;;
65581;SDS011;52231;40.090;18.348;2023-01-01T05:10:45;59.78;;;23.73;;
65581;SDS011;52231;40.090;18.348;2023-01-01T05:13:16;57.97;;;23.92;;
65581;SDS011;52231;40.090;18.348;2023-01-01T05:15:52;52.72;;;22.90;;
65581;SDS011;52231;40.090;18.348;2023-01-01T05:18:25;56.13;;;24.73;;
65581;SDS011;52231;40.090;18.348;2023-01-01T05:20:58;61.30;;;23.63;;
65581;SDS011;52231;40.090;18.348;2023-01-01T05:23:29;54.20;;;22.88;;
65581;SDS011;52231;40.090;18.348;2023-01-01T05:25:58;59.53;;;22.63;;
65581;SDS011;52231;40.090;18.348;2023-01-01T05:28:29;57.88;;;22.17;;
65581;SDS011;52231;40.090;18.348;2023-01-01T05:31:07;54.85;;;22.27;;
65581;SDS011;52231;40.090;18.348;2023-01-01T05:34:15;56.20;;;22.38;;
65581;SDS011;52231;40.090;18.348;2023-01-01T05:37:01;55.70;;;22.45;;
65581;SDS011;52231;40.090;18.348;2023-01-01T05:39:31;53.05;;;22.58;;
65581;SDS011;52231;40.090;18.348;2023-01-01T05:42:10;50.67;;;21.08;;
65581;SDS011;52231;40.090;18.348;2023-01-01T05:44:41;55.53;;;22.02;;
65581;SDS011;52231;40.090;18.348;2023-01-01T05:47:17;61.78;;;21.42;;
65581;SDS011;52231;40.090;18.348;2023-01-01T05:49:56;46.03;;;19.73;;
65581;SDS011;52231;40.090;18.348;2023-01-01T05:52:46;45.70;;;20.70;;
65581;SDS011;52231;40.090;18.348;2023-01-01T05:55:17;55.83;;;21.90;;
65581;SDS011;52231;40.090;18.348;2023-01-01T05:58:00;55.05;;;22.25;;
65581;SDS011;52231;40.090;18.348;2023-01-01T06:01:18;49.72;;;22.98;;
65581;SDS011;52231;40.090;18.348;2023-01-01T06:06:53;51.33;;;21.75;;
65581;SDS011;52231;40.090;18.348;2023-01-01T06:09:35;55.88;;;23.05;;
65581;SDS011;52231;40.090;18.348;2023-01-01T06:12:04;54.63;;;23.70;;
65581;SDS011;52231;40.090;18.348;2023-01-01T06:14:45;51.50;;;22.90;;
65581;SDS011;52231;40.090;18.348;2023-01-01T06:17:17;53.17;;;21.48;;
65581;SDS011;52231;40.090;18.348;2023-01-01T06:22:59;57.22;;;23.30;;
65581;SDS011;52231;40.090;18.348;2023-01-01T06:25:36;63.80;;;24.45;;
65581;SDS011;52231;40.090;18.348;2023-01-01T06:28:07;60.88;;;22.73;;
65581;SDS011;52231;40.090;18.348;2023-01-01T06:30:38;65.32;;;24.25;;
65581;SDS011;52231;40.090;18.348;2023-01-01T06:33:09;67.95;;;26.20;;
65581;SDS011;52231;40.090;18.348;2023-01-01T06:38:30;62.28;;;24.70;;
65581;SDS011;52231;40.090;18.348;2023-01-01T06:41:19;52.65;;;24.50;;
65581;SDS011;52231;40.090;18.348;2023-01-01T06:43:49;73.57;;;27.60;;
65581;SDS011;52231;40.090;18.348;2023-01-01T06:46:19;62.28;;;27.10;;
65581;SDS011;52231;40.090;18.348;2023-01-01T06:49:50;71.40;;;27.85;;
65581;SDS011;52231;40.090;18.348;2023-01-01T06:52:29;68.25;;;28.30;;
65581;SDS011;52231;40.090;18.348;2023-01-01T06:55:08;59.78;;;25.40;;
65581;SDS011;52231;40.090;18.348;2023-01-01T06:58:40;60.70;;;25.58;;
65581;SDS011;52231;40.090;18.348;2023-01-01T07:01:30;62.72;;;23.50;;
65581;SDS011;52231;40.090;18.348;2023-01-01T07:07:27;61.63;;;24.35;;
65581;SDS011;52231;40.090;18.348;2023-01-01T07:10:21;57.40;;;22.95;;
65581;SDS011;52231;40.090;18.348;2023-01-01T07:12:55;52.92;;;22.73;;
65581;SDS011;52231;40.090;18.348;2023-01-01T07:16:18;54.20;;;23.35;;
65581;SDS011;52231;40.090;18.348;2023-01-01T07:22:00;58.13;;;23.23;;
65581;SDS011;52231;40.090;18.348;2023-01-01T07:24:54;53.15;;;23.80;;
65581;SDS011;52231;40.090;18.348;2023-01-01T07:27:47;52.85;;;22.15;;
65581;SDS011;52231;40.090;18.348;2023-01-01T07:30:37;51.22;;;20.92;;
65581;SDS011;52231;40.090;18.348;2023-01-01T07:33:23;52.60;;;21.48;;
65581;SDS011;52231;40.090;18.348;2023-01-01T07:36:04;52.63;;;21.83;;
65581;SDS011;52231;40.090;18.348;2023-01-01T07:38:43;50.17;;;23.73;;
65581;SDS011;52231;40.090;18.348;2023-01-01T07:41:44;46.13;;;22.33;;
65581;SDS011;52231;40.090;18.348;2023-01-01T07:44:37;45.78;;;21.50;;
65581;SDS011;52231;40.090;18.348;2023-01-01T07:47:09;45.38;;;20.45;;
65581;SDS011;52231;40.090;18.348;2023-01-01T07:49:48;42.92;;;20.75;;
65581;SDS011;52231;40.090;18.348;2023-01-01T07:52:18;43.58;;;20.15;;
65581;SDS011;52231;40.090;18.348;2023-01-01T07:54:50;44.17;;;19.33;;
65581;SDS011;52231;40.090;18.348;2023-01-01T07:57:40;41.85;;;20.23;;
65581;SDS011;52231;40.090;18.348;2023-01-01T08:01:01;39.58;;;17.90;;
65581;SDS011;52231;40.090;18.348;2023-01-01T08:03:53;37.45;;;18.48;;
65581;SDS011;52231;40.090;18.348;2023-01-01T08:07:30;44.50;;;17.70;;
65581;SDS011;52231;40.090;18.348;2023-01-01T08:10:06;39.65;;;18.13;;
65581;SDS011;52231;40.090;18.348;2023-01-01T08:13:12;39.85;;;18.67;;
65581;SDS011;52231;40.090;18.348;2023-01-01T08:15:44;32.42;;;16.27;;
65581;SDS011;52231;40.090;18.348;2023-01-01T08:18:20;39.20;;;17.50;;
65581;SDS011;52231;40.090;18.348;2023-01-01T08:20:56;34.90;;;17.92;;
65581;SDS011;52231;40.090;18.348;2023-01-01T08:23:38;35.45;;;16.73;;
65581;SDS011;52231;40.090;18.348;2023-01-01T08:26:40;32.53;;;16.65;;
65581;SDS011;52231;40.090;18.348;2023-01-01T08:29:08;31.10;;;16.77;;
65581;SDS011;52231;40.090;18.348;2023-01-01T08:32:11;34.65;;;16.00;;
65581;SDS011;52231;40.090;18.348;2023-01-01T08:35:01;29.42;;;16.40;;
65581;SDS011;52231;40.090;18.348;2023-01-01T08:38:22;34.28;;;17.17;;
65581;SDS011;52231;40.090;18.348;2023-01-01T08:52:58;33.15;;;16.55;;
65581;SDS011;52231;40.090;18.348;2023-01-01T08:55:26;25.48;;;14.57;;
65581;SDS011;52231;40.090;18.348;2023-01-01T08:57:57;18.88;;;11.75;;
65581;SDS011;52231;40.090;18.348;2023-01-01T09:00:26;19.98;;;11.23;;
65581;SDS011;52231;40.090;18.348;2023-01-01T09:03:00;18.35;;;10.43;;
65581;SDS011;52231;40.090;18.348;2023-01-01T09:05:28;20.50;;;11.60;;
65581;SDS011;52231;40.090;18.348;2023-01-01T09:07:57;20.83;;;12.20;;
65581;SDS011;52231;40.090;18.348;2023-01-01T09:10:38;20.67;;;12.05;;
65581;SDS011;52231;40.090;18.348;2023-01-01T09:13:16;17.38;;;10.07;;
65581;SDS011;52231;40.090;18.348;2023-01-01T09:16:17;16.30;;;9.63;;
65581;SDS011;52231;40.090;18.348;2023-01-01T09:18:46;16.10;;;9.57;;
65581;SDS011;52231;40.090;18.348;2023-01-01T09:21:19;17.90;;;9.45;;
65581;SDS011;52231;40.090;18.348;2023-01-01T09:24:04;17.20;;;9.38;;
65581;SDS011;52231;40.090;18.348;2023-01-01T09:26:33;18.60;;;10.48;;
65581;SDS011;52231;40.090;18.348;2023-01-01T09:29:10;13.07;;;7.80;;
65581;SDS011;52231;40.090;18.348;2023-01-01T09:32:15;14.73;;;6.90;;
65581;SDS011;52231;40.090;18.348;2023-01-01T09:34:53;14.48;;;7.38;;
65581;SDS011;52231;40.090;18.348;2023-01-01T09:37:42;16.92;;;5.97;;
65581;SDS011;52231;40.090;18.348;2023-01-01T09:40:53;11.57;;;5.47;;
65581;SDS011;52231;40.090;18.348;2023-01-01T09:44:43;12.50;;;6.47;;
65581;SDS011;52231;40.090;18.348;2023-01-01T09:47:37;11.35;;;6.15;;
65581;SDS011;52231;40.090;18.348;2023-01-01T09:50:17;10.73;;;5.55;;
65581;SDS011;52231;40.090;18.348;2023-01-01T09:52:58;13.55;;;6.57;;
65581;SDS011;52231;40.090;18.348;2023-01-01T09:55:53;12.38;;;6.45;;
65581;SDS011;52231;40.090;18.348;2023-01-01T09:58:29;11.63;;;6.40;;
65581;SDS011;52231;40.090;18.348;2023-01-01T10:13:56;12.23;;;5.60;;
65581;SDS011;52231;40.090;18.348;2023-01-01T10:16:41;12.15;;;5.72;;
65581;SDS011;52231;40.090;18.348;2023-01-01T10:19:36;11.43;;;5.82;;
65581;SDS011;52231;40.090;18.348;2023-01-01T10:22:17;12.43;;;6.10;;
65581;SDS011;52231;40.090;18.348;2023-01-01T10:25:21;13.65;;;6.68;;
65581;SDS011;52231;40.090;18.348;2023-01-01T10:27:57;13.27;;;5.80;;
65581;SDS011;52231;40.090;18.348;2023-01-01T10:30:39;13.40;;;5.53;;
65581;SDS011;52231;40.090;18.348;2023-01-01T10:33:12;12.05;;;6.03;;
65581;SDS011;52231;40.090;18.348;2023-01-01T10:35:46;9.75;;;4.68;;
65581;SDS011;52231;40.090;18.348;2023-01-01T10:38:24;11.82;;;5.20;;
65581;SDS011;52231;40.090;18.348;2023-01-01T10:41:01;10.70;;;4.88;;
65581;SDS011;52231;40.090;18.348;2023-01-01T10:43:36;11.15;;;5.03;;
65581;SDS011;52231;40.090;18.348;2023-01-01T10:46:05;10.60;;;5.13;;
65581;SDS011;52231;40.090;18.348;2023-01-01T10:48:39;11.93;;;4.72;;
65581;SDS011;52231;40.090;18.348;2023-01-01T10:51:58;12.60;;;4.20;;
65581;SDS011;52231;40.090;18.348;2023-01-01T10:54:37;12.30;;;5.38;;
65581;SDS011;52231;40.090;18.348;2023-01-01T10:57:13;12.65;;;5.00;;
65581;SDS011;52231;40.090;18.348;2023-01-01T10:59:45;8.93;;;4.55;;
65581;SDS011;52231;40.090;18.348;2023-01-01T11:02:23;10.38;;;4.78;;
65581;SDS011;52231;40.090;18.348;2023-01-01T11:07:47;10.27;;;4.78;;
65581;SDS011;52231;40.090;18.348;2023-01-01T11:12:46;11.43;;;4.63;;
65581;SDS011;52231;40.090;18.348;2023-01-01T11:18:11;9.52;;;4.20;;
65581;SDS011;52231;40.090;18.348;2023-01-01T11:21:03;16.02;;;4.28;;
65581;SDS011;52231;40.090;18.348;2023-01-01T11:23:34;11.27;;;4.60;;
65581;SDS011;52231;40.090;18.348;2023-01-01T11:28:34;8.85;;;4.63;;
65581;SDS011;52231;40.090;18.348;2023-01-01T11:31:04;9.35;;;4.15;;
65581;SDS011;52231;40.090;18.348;2023-01-01T11:33:47;8.38;;;3.67;;
65581;SDS011;52231;40.090;18.348;2023-01-01T11:36:29;10.05;;;4.13;;
65581;SDS011;52231;40.090;18.348;2023-01-01T11:39:16;7.85;;;3.95;;
65581;SDS011;52231;40.090;18.348;2023-01-01T11:41:46;9.90;;;4.05;;
65581;SDS011;52231;40.090;18.348;2023-01-01T11:44:35;9.07;;;4.43;;
65581;SDS011;52231;40.090;18.348;2023-01-01T11:47:18;8.93;;;4.80;;
65581;SDS011;52231;40.090;18.348;2023-01-01T11:49:53;8.18;;;3.78;;
65581;SDS011;52231;40.090;18.348;2023-01-01T11:52:32;10.57;;;4.53;;
65581;SDS011;52231;40.090;18.348;2023-01-01T11:55:10;9.45;;;4.40;;
65581;SDS011;52231;40.090;18.348;2023-01-01T12:00:26;9.40;;;4.40;;
65581;SDS011;52231;40.090;18.348;2023-01-01T12:02:58;10.40;;;4.00;;
65581;SDS011;52231;40.090;18.348;2023-01-01T12:05:49;10.93;;;4.30;;
65581;SDS011;52231;40.090;18.348;2023-01-01T12:08:35;9.55;;;4.03;;
65581;SDS011;52231;40.090;18.348;2023-01-01T12:11:11;10.65;;;4.38;;
65581;SDS011;52231;40.090;18.348;2023-01-01T12:13:47;8.32;;;3.97;;
65581;SDS011;52231;40.090;18.348;2023-01-01T12:16:25;9.68;;;4.05;;
65581;SDS011;52231;40.090;18.348;2023-01-01T12:19:30;7.18;;;3.75;;
65581;SDS011;52231;40.090;18.348;2023-01-01T12:22:07;8.98;;;3.67;;
65581;SDS011;52231;40.090;18.348;2023-01-01T12:24:45;7.65;;;3.47;;
65581;SDS011;52231;40.090;18.348;2023-01-01T12:29:52;8.43;;;3.92;;
65581;SDS011;52231;40.090;18.348;2023-01-01T12:33:34;8.88;;;4.07;;
65581;SDS011;52231;40.090;18.348;2023-01-01T12:41:29;10.05;;;3.63;;
65581;SDS011;52231;40.090;18.348;2023-01-01T12:44:29;8.18;;;4.03;;
65581;SDS011;52231;40.090;18.348;2023-01-01T12:47:10;10.63;;;4.03;;
65581;SDS011;52231;40.090;18.348;2023-01-01T12:58:17;8.85;;;3.72;;
65581;SDS011;52231;40.090;18.348;2023-01-01T13:00:57;7.10;;;3.75;;
65581;SDS011;52231;40.090;18.348;2023-01-01T13:03:41;7.50;;;4.13;;
65581;SDS011;52231;40.090;18.348;2023-01-01T13:06:21;13.38;;;4.10;;
65581;SDS011;52231;40.090;18.348;2023-01-01T13:08:58;8.25;;;3.95;;
65581;SDS011;52231;40.090;18.348;2023-01-01T13:11:34;10.18;;;4.03;;
65581;SDS011;52231;40.090;18.348;2023-01-01T13:14:04;9.32;;;3.92;;
65581;SDS011;52231;40.090;18.348;2023-01-01T13:16:37;9.20;;;3.80;;
65581;SDS011;52231;40.090;18.348;2023-01-01T13:21:52;8.30;;;3.80;;
65581;SDS011;52231;40.090;18.348;2023-01-01T13:24:21;8.73;;;3.85;;
65581;SDS011;52231;40.090;18.348;2023-01-01T13:26:52;9.25;;;4.07;;
65581;SDS011;52231;40.090;18.348;2023-01-01T13:32:02;10.85;;;4.05;;
65581;SDS011;52231;40.090;18.348;2023-01-01T13:34:35;9.48;;;4.07;;
65581;SDS011;52231;40.090;18.348;2023-01-01T13:39:55;8.55;;;4.22;;
65581;SDS011;52231;40.090;18.348;2023-01-01T13:45:24;10.50;;;3.75;;
65581;SDS011;52231;40.090;18.348;2023-01-01T14:03:33;12.77;;;4.68;;
65581;SDS011;52231;40.090;18.348;2023-01-01T14:06:22;10.48;;;4.35;;
65581;SDS011;52231;40.090;18.348;2023-01-01T14:11:43;8.80;;;4.35;;
65581;SDS011;52231;40.090;18.348;2023-01-01T14:14:26;8.82;;;4.18;;
65581;SDS011;52231;40.090;18.348;2023-01-01T14:16:59;10.55;;;4.85;;
65581;SDS011;52231;40.090;18.348;2023-01-01T14:19:34;10.27;;;4.30;;
65581;SDS011;52231;40.090;18.348;2023-01-01T14:22:24;8.15;;;4.20;;
65581;SDS011;52231;40.090;18.348;2023-01-01T14:24:55;9.90;;;4.00;;
65581;SDS011;52231;40.090;18.348;2023-01-01T14:27:23;11.88;;;4.70;;
65581;SDS011;52231;40.090;18.348;2023-01-01T14:29:55;12.98;;;4.95;;
65581;SDS011;52231;40.090;18.348;2023-01-01T14:32:23;9.65;;;4.70;;
65581;SDS011;52231;40.090;18.348;2023-01-01T14:34:59;8.32;;;4.13;;
65581;SDS011;52231;40.090;18.348;2023-01-01T14:37:28;11.73;;;4.45;;
65581;SDS011;52231;40.090;18.348;2023-01-01T14:42:43;8.93;;;4.18;;
65581;SDS011;52231;40.090;18.348;2023-01-01T14:45:18;9.90;;;4.57;;
65581;SDS011;52231;40.090;18.348;2023-01-01T14:47:50;12.27;;;4.95;;
65581;SDS011;52231;40.090;18.348;2023-01-01T14:50:23;10.63;;;4.93;;
65581;SDS011;52231;40.090;18.348;2023-01-01T14:53:08;9.13;;;4.20;;
65581;SDS011;52231;40.090;18.348;2023-01-01T14:55:44;10.75;;;4.50;;
65581;SDS011;52231;40.090;18.348;2023-01-01T14:58:19;9.10;;;4.70;;
65581;SDS011;52231;40.090;18.348;2023-01-01T15:00:50;9.63;;;5.10;;
65581;SDS011;52231;40.090;18.348;2023-01-01T15:03:19;9.88;;;5.18;;
65581;SDS011;52231;40.090;18.348;2023-01-01T15:05:56;10.20;;;4.82;;
65581;SDS011;52231;40.090;18.348;2023-01-01T15:08:26;10.57;;;4.97;;
65581;SDS011;52231;40.090;18.348;2023-01-01T15:10:55;9.10;;;4.60;;
65581;SDS011;52231;40.090;18.348;2023-01-01T15:13:25;10.77;;;5.38;;
65581;SDS011;52231;40.090;18.348;2023-01-01T15:15:55;9.70;;;5.28;;
65581;SDS011;52231;40.090;18.348;2023-01-01T15:18:41;10.43;;;5.05;;
65581;SDS011;52231;40.090;18.348;2023-01-01T15:24:08;10.40;;;4.97;;
65581;SDS011;52231;40.090;18.348;2023-01-01T15:26:49;10.98;;;5.45;;
65581;SDS011;52231;40.090;18.348;2023-01-01T15:29:31;11.02;;;5.80;;
65581;SDS011;52231;40.090;18.348;2023-01-01T15:32:06;10.13;;;5.38;;
65581;SDS011;52231;40.090;18.348;2023-01-01T15:34:51;9.35;;;5.15;;
65581;SDS011;52231;40.090;18.348;2023-01-01T15:37:46;10.82;;;5.80;;
65581;SDS011;52231;40.090;18.348;2023-01-01T15:42:47;11.88;;;6.22;;
65581;SDS011;52231;40.090;18.348;2023-01-01T15:45:49;11.20;;;5.93;;
65581;SDS011;52231;40.090;18.348;2023-01-01T15:48:20;12.38;;;6.43;;
65581;SDS011;52231;40.090;18.348;2023-01-01T15:51:00;12.15;;;6.53;;
65581;SDS011;52231;40.090;18.348;2023-01-01T15:53:53;11.98;;;5.95;;
65581;SDS011;52231;40.090;18.348;2023-01-01T15:56:25;11.25;;;6.70;;
65581;SDS011;52231;40.090;18.348;2023-01-01T15:59:05;12.15;;;6.75;;
65581;SDS011;52231;40.090;18.348;2023-01-01T16:01:45;12.65;;;5.72;;
65581;SDS011;52231;40.090;18.348;2023-01-01T16:04:18;15.10;;;7.40;;
65581;SDS011;52231;40.090;18.348;2023-01-01T16:06:54;28.63;;;12.80;;
65581;SDS011;52231;40.090;18.348;2023-01-01T16:09:25;38.47;;;19.88;;
65581;SDS011;52231;40.090;18.348;2023-01-01T16:11:54;49.92;;;26.60;;
65581;SDS011;52231;40.090;18.348;2023-01-01T16:14:25;35.35;;;18.45;;
65581;SDS011;52231;40.090;18.348;2023-01-01T16:16:55;29.30;;;17.80;;
65581;SDS011;52231;40.090;18.348;2023-01-01T16:19:30;26.67;;;15.70;;
65581;SDS011;52231;40.090;18.348;2023-01-01T16:22:00;22.60;;;12.25;;
65581;SDS011;52231;40.090;18.348;2023-01-01T16:24:28;21.15;;;10.23;;
65581;SDS011;52231;40.090;18.348;2023-01-01T16:27:03;20.55;;;11.05;;
65581;SDS011;52231;40.090;18.348;2023-01-01T16:29:31;18.40;;;9.32;;
65581;SDS011;52231;40.090;18.348;2023-01-01T16:32:00;18.30;;;9.40;;
65581;SDS011;52231;40.090;18.348;2023-01-01T16:34:28;15.63;;;9.40;;
65581;SDS011;52231;40.090;18.348;2023-01-01T16:36:57;16.13;;;9.57;;
65581;SDS011;52231;40.090;18.348;2023-01-01T16:39:25;16.70;;;9.07;;
65581;SDS011;52231;40.090;18.348;2023-01-01T16:41:53;15.95;;;8.32;;
65581;SDS011;52231;40.090;18.348;2023-01-01T16:44:25;17.55;;;10.30;;
65581;SDS011;52231;40.090;18.348;2023-01-01T16:46:54;16.70;;;9.88;;
65581;SDS011;52231;40.090;18.348;2023-01-01T16:49:26;16.20;;;8.88;;
65581;SDS011;52231;40.090;18.348;2023-01-01T16:52:05;17.27;;;10.77;;
65581;SDS011;52231;40.090;18.348;2023-01-01T16:54:34;18.65;;;11.15;;
65581;SDS011;52231;40.090;18.348;2023-01-01T16:57:06;18.40;;;10.50;;
65581;SDS011;52231;40.090;18.348;2023-01-01T16:59:37;20.15;;;11.38;;
65581;SDS011;52231;40.090;18.348;2023-01-01T17:02:07;20.02;;;12.05;;
65581;SDS011;52231;40.090;18.348;2023-01-01T17:04:37;21.63;;;13.07;;
65581;SDS011;52231;40.090;18.348;2023-01-01T17:07:08;22.98;;;14.40;;
65581;SDS011;52231;40.090;18.348;2023-01-01T17:09:39;24.63;;;13.85;;
65581;SDS011;52231;40.090;18.348;2023-01-01T17:12:15;20.52;;;12.90;;
65581;SDS011;52231;40.090;18.348;2023-01-01T17:14:46;21.27;;;12.25;;
65581;SDS011;52231;40.090;18.348;2023-01-01T17:17:25;23.95;;;14.27;;
65581;SDS011;52231;40.090;18.348;2023-01-01T17:19:59;24.60;;;14.23;;
65581;SDS011;52231;40.090;18.348;2023-01-01T17:22:49;25.88;;;14.13;;
65581;SDS011;52231;40.090;18.348;2023-01-01T17:25:18;27.02;;;15.55;;
65581;SDS011;52231;40.090;18.348;2023-01-01T17:27:48;33.50;;;19.85;;
65581;SDS011;52231;40.090;18.348;2023-01-01T17:30:17;30.25;;;18.85;;
65581;SDS011;52231;40.090;18.348;2023-01-01T17:32:48;31.55;;;18.60;;
65581;SDS011;52231;40.090;18.348;2023-01-01T17:36:02;33.80;;;19.00;;
65581;SDS011;52231;40.090;18.348;2023-01-01T17:38:31;29.25;;;17.83;;
65581;SDS011;52231;40.090;18.348;2023-01-01T17:41:09;28.13;;;17.83;;
65581;SDS011;52231;40.090;18.348;2023-01-01T17:43:51;30.52;;;18.88;;
65581;SDS011;52231;40.090;18.348;2023-01-01T17:46:27;29.50;;;19.95;;
65581;SDS011;52231;40.090;18.348;2023-01-01T17:49:13;30.98;;;20.25;;
65581;SDS011;52231;40.090;18.348;2023-01-01T17:51:48;35.25;;;20.17;;
65581;SDS011;52231;40.090;18.348;2023-01-01T17:54:26;30.30;;;19.77;;
65581;SDS011;52231;40.090;18.348;2023-01-01T17:56:57;32.70;;;19.70;;
65581;SDS011;52231;40.090;18.348;2023-01-01T17:59:30;32.90;;;20.75;;
65581;SDS011;52231;40.090;18.348;2023-01-01T18:02:26;33.75;;;20.80;;
65581;SDS011;52231;40.090;18.348;2023-01-01T18:05:25;30.15;;;19.73;;
65581;SDS011;52231;40.090;18.348;2023-01-01T18:08:07;32.90;;;19.20;;
65581;SDS011;52231;40.090;18.348;2023-01-01T18:10:59;30.27;;;18.70;;
65581;SDS011;52231;40.090;18.348;2023-01-01T18:13:32;32.08;;;19.70;;
65581;SDS011;52231;40.090;18.348;2023-01-01T18:16:06;33.35;;;19.23;;
65581;SDS011;52231;40.090;18.348;2023-01-01T18:18:46;37.92;;;19.65;;
65581;SDS011;52231;40.090;18.348;2023-01-01T18:21:17;32.58;;;19.80;;
65581;SDS011;52231;40.090;18.348;2023-01-01T18:23:49;33.17;;;19.73;;
65581;SDS011;52231;40.090;18.348;2023-01-01T18:26:31;33.90;;;20.83;;
65581;SDS011;52231;40.090;18.348;2023-01-01T18:29:00;47.25;;;29.40;;
65581;SDS011;52231;40.090;18.348;2023-01-01T18:31:30;46.53;;;27.23;;
65581;SDS011;52231;40.090;18.348;2023-01-01T18:34:00;33.10;;;21.63;;
65581;SDS011;52231;40.090;18.348;2023-01-01T18:36:33;31.80;;;20.27;;